メインページ
METAR-TAF:

METAR-TAF

空港 :

ラスベガス, ネバダ州, アメリカ合衆国

マッカラン国際空港

緯度: 36-04-44N, 経度: 115-09-19W, 海抜: 663m

現時点の気象観測

当レポートは35分前の15:56(UTC)に作成
無風
気温 16°C
湿度 39%
気圧 1026 hPa
視程: 16.1km
晴天

METAR: KLAS 221556Z 00000KT 10SM CLR 16/02 A3030 RMK AO2 SLP249 T01610022

時間: 08:31 (16:31 UTC)

予報

当レポートは1時間56分前の14:35(UTC)に作成
予報は22日の 15時(UTC)から 23日の 18時(UTC)まで有効
変向風 4kt
視程: 10km
晴天
23日の 0400時(UTC)から
南西の風 5kt
視程: 10km
晴天
23日の 1200時(UTC)から
変向風 4kt
視程: 10km
高度25000ftの雲はほとんどない

TAF: KLAS 221435Z 2215/2318 VRB04KT P6SM SKC FM230400 22005KT P6SM SKC FM231200 VRB04KT P6SM FEW250

4,000以上の空港の気象観測と天気予報(METAR報とTAF報)

利用可能な観測所は地図上に黄色い丸と赤い丸で示す。

丸の上にカーソルを重ねると観測所名を参照できる。

次にクリックすると気象観測と天気予報を参照できる。

マップの切り替え:黒色「×」印の緑ボタンをクリックして拡大、「-」印の緑ボタンをクリックして縮小、緑色の三角印をクリックして隣りの地図に切り替え


METAR-TAF: